ADDS METAR Data INFO
IDs: Format: Raw Decoded Include TAF

Data at: 0255 UTC 21 Jan 2018

KBBW 210153Z AUTO 02010KT 10SM CLR 02/M02 A2986 RMK AO2 SLP129 T00221017
KBBW 210053Z AUTO 01011KT 10SM CLR 03/M02 A2985 RMK AO2 SLP124 T00281017
KBBW 202353Z AUTO 02010KT 10SM CLR 03/M01 A2982 RMK AO2 SLP114 T00331011 10083 20033 53015
KBBW 202253Z AUTO 01011KT 10SM CLR 04/00 A2980 RMK AO2 SLP107 T00440000
KBBW 202153Z AUTO 02009G19KT 10SM CLR 07/M01 A2978 RMK AO2 SLP095 T00721006
KBBW 202053Z AUTO 02010KT 10SM CLR 08/00 A2977 RMK AO2 SLP090 T00780000 58021
KBBW 201953Z AUTO 01012KT 10SM CLR 07/01 A2979 RMK AO2 SLP099 T00720006
KBBW 201853Z AUTO 03009KT 10SM CLR 08/00 A2981 RMK AO2 SLP104 T00780000
KBBW 201753Z AUTO 07007KT 10SM CLR 07/M01 A2984 RMK AO2 SLP113 T00721006 10072 21006 50004
KBBW 201653Z AUTO 04010KT 10SM CLR 05/M01 A2984 RMK AO2 SLP116 T00501006
KBBW 201553Z AUTO 01008KT 10SM CLR 02/M01 A2985 RMK AO2 SLP121 T00221011
KBBW 201453Z AUTO 01006KT 10SM CLR 01/M01 A2982 RMK AO2 SLP113 T00111011 51018
KBBW 201353Z AUTO 36006KT 10SM CLR M01/M03 A2980 RMK AO2 SLP109 T10061028
KBBW 201253Z AUTO 35003KT 10SM CLR 01/M02 A2979 RMK AO2 SLP101 T00061022
KBBW 201153Z AUTO 01007KT 10SM CLR 00/M03 A2976 RMK AO2 SLP093 T00001028 10028 21006 51001
KBBW 201053Z AUTO 01004KT 10SM CLR 00/M02 A2976 RMK AO2 SLP088 T00001022
KBBW 200953Z AUTO 36003KT 10SM CLR 01/M02 A2977 RMK AO2 SLP087 T00061022
KBBW 200853Z AUTO 02004KT 10SM CLR 02/M01 A2976 RMK AO2 SLP082 T00221011 55005
KBBW 200753Z AUTO 34004KT 10SM CLR 02/M01 A2975 RMK AO2 SLP081 T00221011
KBBW 200653Z AUTO 36006KT 10SM CLR 03/M01 A2976 RMK AO2 SLP086 T00281011
KBBW 200553Z AUTO 34004KT 10SM CLR 03/M01 A2978 RMK AO2 SLP092 T00281006 10061 20022 401441011 51016
KBBW 200453Z AUTO 28004KT 10SM CLR 03/M01 A2977 RMK AO2 SLP089 T00331006
KBBW 200353Z AUTO 35005KT 10SM CLR 04/M01 A2975 RMK AO2 SLP084 T00441006
KBBW 200253Z AUTO 01005KT 10SM CLR 04/00 A2973 RMK AO2 SLP076 T00440000 51008
KBBW 200153Z AUTO 01008KT 10SM CLR 04/00 A2973 RMK AO2 SLP079 T00390000
KBBW 200053Z AUTO 35004KT 10SM CLR 04/M01 A2972 RMK AO2 SLP078 T00391006
KBBW 192353Z AUTO 36007KT 10SM CLR 06/00 A2970 RMK AO2 SLP068 T00560000 10144 20056 53030
KBBW 192253Z AUTO 35007KT 10SM CLR 09/01 A2967 RMK AO2 SLP055 T00940006
KBBW 192153Z AUTO 00000KT 10SM CLR 12/00 A2963 RMK AO2 SLP038 T01220000
KBBW 192053Z AUTO 00000KT 10SM CLR 12/02 A2960 RMK AO2 SLP028 T01220022 56017
KBBW 191953Z AUTO 17003KT 10SM CLR 11/M01 A2961 RMK AO2 SLP033 T01111011
KBBW 191853Z AUTO 24006KT 10SM CLR 08/M02 A2964 RMK AO2 SLP044 T00831017
KBBW 191753Z AUTO 23005KT 10SM CLR 08/M02 A2966 RMK AO2 SLP053 T00781022 10078 20006 58005
KBBW 191653Z AUTO 24006KT 10SM CLR 06/M02 A2968 RMK AO2 SLP061 T00611017
KBBW 191553Z AUTO 24005KT 10SM CLR 07/M04 A2968 RMK AO2 SLP064 T00671039